createdAt,value
2018-06-21T00:02:12.186Z,72.00
2018-06-21T00:04:41.133Z,71.70
2018-06-21T00:07:10.082Z,73.20
2018-06-21T00:09:39.002Z,73.80
2018-06-21T00:12:07.943Z,74.00
2018-06-21T00:14:36.812Z,74.20
2018-06-21T00:22:02.711Z,74.40
2018-06-21T00:24:31.610Z,74.30
2018-06-21T00:27:00.516Z,74.30
2018-06-21T00:31:57.938Z,74.70
2018-06-21T00:34:26.877Z,74.10
2018-06-21T00:36:55.769Z,75.10
2018-06-21T00:39:24.675Z,76.70
2018-06-21T00:41:53.593Z,78.70
2018-06-21T00:44:22.505Z,78.40
2018-06-21T00:46:51.413Z,78.50
2018-06-21T00:49:20.369Z,79.20
2018-06-21T00:51:49.305Z,80.00
2018-06-21T00:54:18.194Z,80.80
2018-06-21T00:56:47.101Z,79.50
2018-06-21T00:59:16.025Z,78.50
2018-06-21T01:01:44.904Z,77.70
2018-06-21T01:06:42.248Z,76.30
2018-06-21T01:09:11.168Z,75.20
2018-06-21T01:14:08.563Z,74.80
2018-06-21T01:16:37.573Z,74.60
2018-06-21T01:19:06.504Z,75.40
2018-06-21T01:21:35.423Z,76.20
2018-06-21T01:24:04.389Z,76.30
2018-06-21T01:29:01.761Z,76.70
2018-06-21T01:31:30.692Z,76.80
2018-06-21T01:33:59.590Z,76.90
2018-06-21T01:36:28.573Z,78.60
2018-06-21T01:38:57.478Z,78.50
2018-06-21T01:41:26.316Z,78.00
2018-06-21T01:43:55.201Z,78.10
2018-06-21T01:46:24.117Z,79.40
2018-06-21T01:48:53.124Z,81.40
2018-06-21T01:51:22.026Z,82.00
2018-06-21T01:53:50.906Z,82.40
2018-06-21T01:56:19.825Z,81.50
2018-06-21T01:58:48.700Z,81.50
2018-06-21T02:01:17.622Z,81.00
2018-06-21T02:03:46.599Z,82.40
2018-06-21T02:06:15.534Z,84.70
2018-06-21T02:11:12.981Z,85.70
2018-06-21T02:13:41.992Z,84.10
2018-06-21T02:16:10.860Z,84.00
2018-06-21T02:18:39.769Z,84.00
2018-06-21T02:23:37.164Z,82.10
2018-06-21T02:26:06.381Z,81.20
2018-06-21T02:28:35.324Z,80.30
2018-06-21T02:31:04.221Z,82.50
2018-06-21T02:38:30.103Z,82.50
2018-06-21T02:40:59.175Z,82.70
2018-06-21T02:45:56.560Z,82.30
2018-06-21T02:48:25.464Z,81.80
2018-06-21T02:50:54.444Z,84.20
2018-06-21T02:53:23.337Z,84.10
2018-06-21T02:55:52.243Z,84.10
2018-06-21T02:58:21.221Z,83.20
2018-06-21T03:00:50.169Z,82.50
2018-06-21T03:03:19.152Z,82.20
2018-06-21T03:05:48.082Z,82.10
2018-06-21T03:08:17.949Z,81.80
2018-06-21T03:10:46.841Z,82.40
2018-06-21T03:13:15.693Z,84.30
2018-06-21T03:15:44.663Z,86.60
2018-06-21T03:18:13.544Z,85.90
2018-06-21T03:20:42.449Z,86.60
2018-06-21T03:23:11.332Z,87.20
2018-06-21T03:25:40.299Z,86.90
2018-06-21T03:28:09.243Z,87.60
2018-06-21T03:30:38.167Z,88.00
2018-06-21T03:33:07.251Z,87.70
2018-06-21T03:35:36.163Z,87.00
2018-06-21T03:38:05.139Z,86.90
2018-06-21T03:40:34.069Z,87.00
2018-06-21T03:45:31.436Z,87.80
2018-06-21T03:50:28.839Z,88.90
2018-06-21T03:52:57.734Z,88.70
2018-06-21T03:55:26.606Z,88.70
2018-06-21T03:57:55.514Z,88.60
2018-06-21T04:00:24.921Z,89.30
2018-06-21T04:02:53.994Z,90.20
2018-06-21T04:05:22.998Z,90.00
2018-06-21T04:07:51.898Z,90.40
2018-06-21T04:10:20.818Z,90.70
2018-06-21T04:12:49.724Z,91.00
2018-06-21T04:15:18.624Z,91.30
2018-06-21T04:20:16.150Z,91.80
2018-06-21T04:22:45.013Z,91.70
2018-06-21T04:25:13.892Z,92.00
2018-06-21T04:27:42.818Z,92.40
2018-06-21T04:30:11.884Z,93.00
2018-06-21T04:32:47.556Z,93.00
2018-06-21T04:35:16.476Z,93.50
2018-06-21T04:37:45.388Z,93.20
2018-06-21T04:45:11.256Z,93.60
2018-06-21T04:47:40.282Z,93.80
2018-06-21T04:50:09.205Z,94.20
2018-06-21T04:52:38.185Z,94.20
2018-06-21T04:55:07.185Z,94.50
2018-06-21T04:57:36.250Z,94.70
2018-06-21T05:00:05.408Z,95.00
2018-06-21T05:02:34.325Z,95.40
2018-06-21T05:05:03.218Z,95.40
2018-06-21T05:07:32.114Z,95.90
2018-06-21T05:10:01.245Z,96.30
2018-06-21T05:12:30.159Z,96.30
2018-06-21T05:19:56.077Z,96.80
2018-06-21T05:22:24.976Z,97.40
2018-06-21T05:24:53.948Z,97.80
2018-06-21T05:27:22.868Z,98.30
2018-06-21T05:29:51.891Z,98.40
2018-06-21T05:32:20.770Z,98.50
2018-06-21T05:37:18.196Z,99.00
2018-06-21T05:39:47.292Z,99.10
2018-06-21T05:42:16.260Z,99.30
2018-06-21T05:44:45.215Z,99.70
2018-06-21T05:47:14.475Z,99.60
2018-06-21T05:49:43.374Z,99.90
2018-06-21T05:52:12.348Z,99.90
2018-06-21T05:54:41.289Z,99.90
2018-06-21T05:57:10.213Z,99.90
2018-06-21T05:59:39.155Z,99.90
2018-06-21T06:02:08.061Z,99.90
2018-06-21T06:04:36.992Z,99.90
2018-06-21T06:07:06.041Z,99.90
2018-06-21T06:14:31.894Z,98.70
2018-06-21T06:19:29.403Z,99.40
2018-06-21T06:21:58.325Z,99.00
2018-06-21T06:24:27.230Z,98.40
2018-06-21T06:26:56.165Z,97.10
2018-06-21T06:29:25.051Z,98.30
2018-06-21T06:31:53.998Z,97.60
2018-06-21T06:34:22.899Z,97.30
2018-06-21T06:36:51.815Z,96.40
2018-06-21T06:39:21.596Z,96.10
2018-06-21T06:41:51.517Z,96.30
2018-06-21T06:46:49.055Z,96.90
2018-06-21T06:49:17.961Z,96.20
2018-06-21T06:51:46.814Z,95.20
2018-06-21T06:54:15.818Z,94.80
2018-06-21T06:56:44.701Z,94.30
2018-06-21T06:59:13.620Z,94.00
2018-06-21T07:01:42.506Z,94.00
2018-06-21T07:04:11.458Z,93.30
2018-06-21T07:06:40.355Z,92.50
2018-06-21T07:09:10.114Z,92.30
2018-06-21T07:11:39.039Z,90.80
2018-06-21T07:14:07.957Z,90.30
2018-06-21T07:16:37.005Z,91.50
2018-06-21T07:19:06.596Z,90.50
2018-06-21T07:21:39.592Z,90.40
2018-06-21T07:24:09.246Z,90.00
2018-06-21T07:26:39.180Z,90.40
2018-06-21T07:29:08.747Z,87.80
2018-06-21T07:31:37.672Z,85.50
2018-06-21T07:34:06.701Z,85.70
2018-06-21T07:36:35.628Z,87.20
2018-06-21T07:39:06.729Z,84.90
2018-06-21T07:41:35.634Z,82.70
2018-06-21T07:46:33.622Z,84.00
2018-06-21T07:51:31.344Z,82.80
2018-06-21T07:54:00.281Z,81.50
2018-06-21T07:58:57.743Z,81.10
2018-06-21T08:01:26.639Z,81.30
2018-06-21T08:03:55.533Z,83.10
2018-06-21T08:06:24.424Z,78.80
2018-06-21T08:08:53.340Z,77.60
2018-06-21T08:11:22.489Z,77.00
2018-06-21T08:13:51.384Z,80.00
2018-06-21T08:16:20.299Z,80.40
2018-06-21T08:18:49.174Z,81.40
2018-06-21T08:21:18.080Z,79.20
2018-06-21T08:26:15.519Z,79.80
2018-06-21T08:28:44.452Z,79.50
2018-06-21T08:33:41.797Z,76.70
2018-06-21T08:36:10.775Z,79.90
2018-06-21T08:38:39.663Z,79.10
2018-06-21T08:41:08.766Z,78.80
2018-06-21T08:43:37.930Z,77.70
2018-06-21T08:46:07.189Z,75.50
2018-06-21T08:51:04.930Z,75.10
2018-06-21T08:53:33.857Z,74.80
2018-06-21T08:56:02.791Z,75.60
2018-06-21T08:58:31.766Z,75.00
2018-06-21T09:01:00.648Z,73.40
2018-06-21T09:03:29.555Z,73.10
2018-06-21T09:05:58.574Z,76.50
2018-06-21T09:08:27.681Z,73.40
2018-06-21T09:10:56.609Z,74.30
2018-06-21T09:13:33.231Z,72.60
2018-06-21T09:16:02.733Z,74.30
2018-06-21T09:18:31.614Z,74.30
2018-06-21T09:21:00.695Z,76.10
2018-06-21T09:23:29.639Z,75.60
2018-06-21T09:25:58.554Z,73.80
2018-06-21T09:28:27.465Z,74.90
2018-06-21T09:30:56.472Z,74.50
2018-06-21T09:33:25.349Z,73.50
2018-06-21T09:35:54.605Z,73.00
2018-06-21T09:41:02.814Z,72.50
2018-06-21T09:43:36.900Z,70.60
2018-06-21T09:46:11.021Z,70.80
2018-06-21T09:48:44.028Z,71.00
2018-06-21T09:51:12.967Z,69.70
2018-06-21T09:53:41.961Z,68.60
2018-06-21T09:56:10.812Z,69.60
2018-06-21T10:01:08.225Z,68.90
2018-06-21T10:03:37.114Z,70.20
2018-06-21T10:06:06.081Z,68.70
2018-06-21T10:08:35.160Z,66.70
2018-06-21T10:13:32.518Z,68.80
2018-06-21T10:16:01.447Z,67.70
2018-06-21T10:18:30.387Z,70.00
2018-06-21T10:20:59.270Z,67.80
2018-06-21T10:23:28.176Z,68.50
2018-06-21T10:25:57.083Z,69.20
2018-06-21T10:28:25.977Z,64.50
2018-06-21T10:33:23.369Z,65.20
2018-06-21T10:35:52.404Z,60.70
2018-06-21T10:38:21.329Z,59.60
2018-06-21T10:45:47.341Z,57.50
2018-06-21T10:48:16.299Z,58.40
2018-06-21T10:50:45.198Z,57.70
2018-06-21T10:53:14.155Z,53.10
2018-06-21T10:58:11.664Z,55.70
2018-06-21T11:00:40.646Z,56.20
2018-06-21T11:03:09.635Z,56.70
2018-06-21T11:08:07.190Z,56.70
2018-06-21T11:13:04.938Z,53.10
2018-06-21T11:15:33.864Z,55.00
2018-06-21T11:18:02.797Z,54.20
2018-06-21T11:20:31.711Z,54.60
2018-06-21T11:23:00.681Z,54.10
2018-06-21T11:25:29.639Z,53.40
2018-06-21T11:27:58.567Z,52.30
2018-06-21T11:30:27.655Z,52.10
2018-06-21T11:32:56.550Z,51.10
2018-06-21T11:35:25.475Z,51.50
2018-06-21T11:37:54.403Z,51.40
2018-06-21T11:40:23.328Z,49.20
2018-06-21T11:42:52.212Z,50.00
2018-06-21T11:45:21.116Z,48.50
2018-06-21T11:47:50.040Z,48.50
2018-06-21T11:52:47.482Z,48.20
2018-06-21T11:55:16.381Z,47.10
2018-06-21T11:57:45.314Z,47.00
2018-06-21T12:00:14.250Z,47.10
2018-06-21T12:02:43.222Z,47.30
2018-06-21T12:05:12.168Z,47.30
2018-06-21T12:07:41.082Z,46.40
2018-06-21T12:10:10.003Z,50.30
2018-06-21T12:12:38.957Z,49.60
2018-06-21T12:15:07.880Z,50.90
2018-06-21T12:17:36.869Z,51.40
2018-06-21T12:20:05.804Z,50.90
2018-06-21T12:22:34.809Z,51.10
2018-06-21T12:27:32.251Z,45.70
2018-06-21T12:30:01.190Z,44.80
2018-06-21T12:32:30.142Z,45.70
2018-06-21T12:34:59.220Z,45.90
2018-06-21T12:37:28.334Z,44.90
2018-06-21T12:39:57.276Z,44.30
2018-06-21T12:42:26.232Z,44.80
2018-06-21T12:52:20.882Z,45.00
2018-06-21T12:57:18.326Z,42.70
2018-06-21T12:59:47.217Z,41.50
2018-06-21T13:02:17.136Z,41.90
2018-06-21T13:04:46.251Z,42.50
2018-06-21T13:07:15.171Z,43.00
2018-06-21T13:09:54.906Z,41.80
2018-06-21T13:12:37.901Z,42.00
2018-06-21T13:15:06.877Z,41.60
2018-06-21T13:17:35.811Z,41.50
2018-06-21T13:20:05.765Z,41.00
2018-06-21T13:22:34.688Z,41.70
2018-06-21T13:27:32.124Z,42.90
2018-06-21T13:30:01.290Z,41.20
2018-06-21T13:32:30.237Z,41.10
2018-06-21T13:34:59.153Z,40.50
2018-06-21T13:37:28.104Z,39.70
2018-06-21T13:39:57.089Z,40.00
2018-06-21T13:42:25.985Z,41.70
2018-06-21T13:44:54.932Z,41.30
2018-06-21T13:47:23.837Z,42.30
2018-06-21T13:49:52.809Z,42.10
2018-06-21T13:52:21.732Z,41.40
2018-06-21T13:54:50.664Z,41.10
2018-06-21T13:59:48.327Z,42.90
2018-06-21T14:02:17.265Z,42.40
2018-06-21T14:04:46.269Z,43.40
2018-06-21T14:07:15.179Z,43.60
2018-06-21T14:09:44.084Z,42.10
2018-06-21T14:12:13.034Z,43.30
2018-06-21T14:14:42.047Z,42.60
2018-06-21T14:17:11.084Z,42.90
2018-06-21T14:22:08.522Z,41.70
2018-06-21T14:24:37.575Z,42.20
2018-06-21T14:27:06.508Z,42.30
2018-06-21T14:29:35.604Z,42.80
2018-06-21T14:32:04.495Z,42.70
2018-06-21T14:34:33.460Z,42.40
2018-06-21T14:37:02.437Z,42.60
2018-06-21T14:39:31.384Z,43.30
2018-06-21T14:42:00.443Z,43.70
2018-06-21T14:44:29.435Z,43.50
2018-06-21T14:46:58.382Z,43.70
2018-06-21T14:51:55.863Z,44.30
2018-06-21T14:56:53.312Z,44.70
2018-06-21T15:01:50.762Z,47.00
2018-06-21T15:04:20.315Z,46.50
2018-06-21T15:06:49.272Z,47.10
2018-06-21T15:09:18.159Z,47.60
2018-06-21T15:11:47.066Z,47.70
2018-06-21T15:16:44.471Z,49.20
2018-06-21T15:19:13.410Z,49.80
2018-06-21T15:21:43.409Z,49.80
2018-06-21T15:24:12.333Z,50.00
2018-06-21T15:29:09.832Z,50.50
2018-06-21T15:31:38.770Z,50.60
2018-06-21T15:34:07.997Z,50.60
2018-06-21T15:39:16.644Z,51.40
2018-06-21T15:41:45.603Z,51.70
2018-06-21T15:44:14.569Z,52.20
2018-06-21T15:46:49.820Z,52.10
2018-06-21T15:49:18.764Z,52.10
2018-06-21T15:51:47.659Z,52.70
2018-06-21T15:54:16.579Z,53.00
2018-06-21T15:56:45.475Z,53.20
2018-06-21T15:59:14.458Z,53.30
2018-06-21T16:01:43.365Z,53.10
2018-06-21T16:04:13.364Z,53.40
2018-06-21T16:06:42.294Z,53.60
2018-06-21T16:09:11.270Z,54.30
2018-06-21T16:11:40.655Z,53.90
2018-06-21T16:14:09.602Z,53.50
2018-06-21T16:19:07.050Z,53.50
2018-06-21T16:21:36.040Z,53.20
2018-06-21T16:24:05.045Z,53.10
2018-06-21T16:29:02.405Z,53.90
2018-06-21T16:31:31.289Z,53.90
2018-06-21T16:34:00.195Z,53.40
2018-06-21T16:36:29.147Z,53.40
2018-06-21T16:38:58.078Z,52.90
2018-06-21T16:43:55.432Z,54.20
2018-06-21T16:46:24.412Z,54.90
2018-06-21T16:48:53.303Z,55.10
2018-06-21T16:51:22.207Z,55.50
2018-06-21T16:53:51.115Z,56.10
2018-06-21T16:58:48.796Z,56.80
2018-06-21T17:03:46.208Z,56.90
2018-06-21T17:06:15.221Z,57.60
2018-06-21T17:08:44.141Z,57.40
2018-06-21T17:13:41.671Z,58.00
2018-06-21T17:16:10.591Z,58.20
2018-06-21T17:18:39.725Z,59.10
2018-06-21T17:21:08.916Z,58.90
2018-06-21T17:23:37.869Z,58.40
2018-06-21T17:26:06.716Z,58.20
2018-06-21T17:28:35.722Z,58.10
